sensor_id;sensor_type;location;lat;lon;timestamp;P1;durP1;ratioP1;P2;durP2;ratioP2
74658;SDS011;63186;51.204;6.536;2024-02-26T00:01:48;3.30;;;1.42;;
74658;SDS011;63186;51.204;6.536;2024-02-26T00:04:13;2.47;;;1.45;;
74658;SDS011;63186;51.204;6.536;2024-02-26T00:06:39;2.58;;;1.27;;
74658;SDS011;63186;51.204;6.536;2024-02-26T00:09:08;3.08;;;1.58;;
74658;SDS011;63186;51.204;6.536;2024-02-26T00:11:36;5.28;;;1.88;;
74658;SDS011;63186;51.204;6.536;2024-02-26T00:14:01;3.90;;;1.55;;
74658;SDS011;63186;51.204;6.536;2024-02-26T00:16:27;2.80;;;1.52;;
74658;SDS011;63186;51.204;6.536;2024-02-26T00:18:52;1.73;;;1.23;;
74658;SDS011;63186;51.204;6.536;2024-02-26T00:21:17;3.17;;;1.52;;
74658;SDS011;63186;51.204;6.536;2024-02-26T00:23:43;1.97;;;1.27;;
74658;SDS011;63186;51.204;6.536;2024-02-26T00:26:08;3.60;;;1.70;;
74658;SDS011;63186;51.204;6.536;2024-02-26T00:28:35;3.78;;;1.90;;
74658;SDS011;63186;51.204;6.536;2024-02-26T00:31:01;4.07;;;2.00;;
74658;SDS011;63186;51.204;6.536;2024-02-26T00:33:26;4.17;;;2.00;;
74658;SDS011;63186;51.204;6.536;2024-02-26T00:35:51;2.27;;;1.33;;
74658;SDS011;63186;51.204;6.536;2024-02-26T00:38:16;2.73;;;1.40;;
74658;SDS011;63186;51.204;6.536;2024-02-26T00:40:42;3.97;;;1.70;;
74658;SDS011;63186;51.204;6.536;2024-02-26T00:43:07;3.50;;;1.60;;
74658;SDS011;63186;51.204;6.536;2024-02-26T00:45:32;5.20;;;1.93;;
74658;SDS011;63186;51.204;6.536;2024-02-26T00:47:58;2.90;;;1.35;;
74658;SDS011;63186;51.204;6.536;2024-02-26T00:50:26;2.50;;;1.65;;
74658;SDS011;63186;51.204;6.536;2024-02-26T00:52:51;2.33;;;1.25;;
74658;SDS011;63186;51.204;6.536;2024-02-26T00:55:16;2.87;;;1.40;;
74658;SDS011;63186;51.204;6.536;2024-02-26T00:57:42;4.03;;;1.77;;
74658;SDS011;63186;51.204;6.536;2024-02-26T01:00:07;3.38;;;1.35;;
74658;SDS011;63186;51.204;6.536;2024-02-26T01:02:36;3.63;;;1.40;;
74658;SDS011;63186;51.204;6.536;2024-02-26T01:05:01;3.65;;;1.40;;
74658;SDS011;63186;51.204;6.536;2024-02-26T01:07:27;2.83;;;1.52;;
74658;SDS011;63186;51.204;6.536;2024-02-26T01:09:53;3.80;;;1.60;;
74658;SDS011;63186;51.204;6.536;2024-02-26T01:12:18;5.10;;;1.77;;
74658;SDS011;63186;51.204;6.536;2024-02-26T01:14:43;4.70;;;1.40;;
74658;SDS011;63186;51.204;6.536;2024-02-26T01:17:09;4.33;;;1.40;;
74658;SDS011;63186;51.204;6.536;2024-02-26T01:19:34;3.07;;;1.50;;
74658;SDS011;63186;51.204;6.536;2024-02-26T01:21:59;4.63;;;1.40;;
74658;SDS011;63186;51.204;6.536;2024-02-26T01:24:25;2.78;;;1.33;;
74658;SDS011;63186;51.204;6.536;2024-02-26T01:26:50;4.70;;;1.70;;
74658;SDS011;63186;51.204;6.536;2024-02-26T01:29:15;5.00;;;1.60;;
74658;SDS011;63186;51.204;6.536;2024-02-26T01:31:41;4.03;;;1.50;;
74658;SDS011;63186;51.204;6.536;2024-02-26T01:34:06;3.83;;;1.80;;
74658;SDS011;63186;51.204;6.536;2024-02-26T01:36:31;3.23;;;1.20;;
74658;SDS011;63186;51.204;6.536;2024-02-26T01:38:57;3.72;;;1.58;;
74658;SDS011;63186;51.204;6.536;2024-02-26T01:41:22;4.13;;;1.23;;
74658;SDS011;63186;51.204;6.536;2024-02-26T01:43:48;2.40;;;1.60;;
74658;SDS011;63186;51.204;6.536;2024-02-26T01:46:13;2.90;;;1.27;;
74658;SDS011;63186;51.204;6.536;2024-02-26T01:48:43;1.50;;;0.95;;
74658;SDS011;63186;51.204;6.536;2024-02-26T01:51:10;1.52;;;0.98;;
74658;SDS011;63186;51.204;6.536;2024-02-26T01:53:39;3.53;;;1.55;;
74658;SDS011;63186;51.204;6.536;2024-02-26T01:56:04;2.25;;;0.90;;
74658;SDS011;63186;51.204;6.536;2024-02-26T01:58:30;4.35;;;1.70;;
74658;SDS011;63186;51.204;6.536;2024-02-26T02:00:56;1.73;;;1.00;;
74658;SDS011;63186;51.204;6.536;2024-02-26T02:03:22;2.17;;;1.45;;
74658;SDS011;63186;51.204;6.536;2024-02-26T02:05:48;2.13;;;1.20;;
74658;SDS011;63186;51.204;6.536;2024-02-26T02:08:14;2.10;;;1.20;;
74658;SDS011;63186;51.204;6.536;2024-02-26T02:10:39;1.48;;;1.05;;
74658;SDS011;63186;51.204;6.536;2024-02-26T02:13:07;1.77;;;1.13;;
74658;SDS011;63186;51.204;6.536;2024-02-26T02:15:32;2.50;;;1.05;;
74658;SDS011;63186;51.204;6.536;2024-02-26T02:17:58;2.55;;;1.17;;
74658;SDS011;63186;51.204;6.536;2024-02-26T02:20:24;1.92;;;0.90;;
74658;SDS011;63186;51.204;6.536;2024-02-26T02:22:59;2.65;;;1.13;;
74658;SDS011;63186;51.204;6.536;2024-02-26T02:25:24;3.67;;;1.30;;
74658;SDS011;63186;51.204;6.536;2024-02-26T02:27:50;4.20;;;1.70;;
74658;SDS011;63186;51.204;6.536;2024-02-26T02:30:18;3.10;;;1.80;;
74658;SDS011;63186;51.204;6.536;2024-02-26T02:32:45;3.20;;;1.23;;
74658;SDS011;63186;51.204;6.536;2024-02-26T02:35:11;1.60;;;1.05;;
74658;SDS011;63186;51.204;6.536;2024-02-26T02:37:36;1.67;;;0.68;;
74658;SDS011;63186;51.204;6.536;2024-02-26T02:40:02;2.67;;;1.45;;
74658;SDS011;63186;51.204;6.536;2024-02-26T02:42:28;1.88;;;1.10;;
74658;SDS011;63186;51.204;6.536;2024-02-26T02:44:53;3.92;;;1.27;;
74658;SDS011;63186;51.204;6.536;2024-02-26T02:47:18;3.15;;;1.50;;
74658;SDS011;63186;51.204;6.536;2024-02-26T02:49:44;4.13;;;1.77;;
74658;SDS011;63186;51.204;6.536;2024-02-26T02:52:09;3.70;;;1.57;;
74658;SDS011;63186;51.204;6.536;2024-02-26T02:54:34;4.17;;;1.90;;
74658;SDS011;63186;51.204;6.536;2024-02-26T02:57:01;2.13;;;1.27;;
74658;SDS011;63186;51.204;6.536;2024-02-26T02:59:28;3.58;;;1.70;;
74658;SDS011;63186;51.204;6.536;2024-02-26T03:01:53;2.40;;;1.10;;
74658;SDS011;63186;51.204;6.536;2024-02-26T03:04:18;4.07;;;1.50;;
74658;SDS011;63186;51.204;6.536;2024-02-26T03:06:44;2.73;;;1.60;;
74658;SDS011;63186;51.204;6.536;2024-02-26T03:09:09;4.37;;;1.40;;
74658;SDS011;63186;51.204;6.536;2024-02-26T03:11:34;3.73;;;1.63;;
74658;SDS011;63186;51.204;6.536;2024-02-26T03:13:59;3.78;;;1.48;;
74658;SDS011;63186;51.204;6.536;2024-02-26T03:16:25;1.70;;;1.10;;
74658;SDS011;63186;51.204;6.536;2024-02-26T03:18:50;2.83;;;1.40;;
74658;SDS011;63186;51.204;6.536;2024-02-26T03:21:15;4.47;;;1.40;;
74658;SDS011;63186;51.204;6.536;2024-02-26T03:23:41;6.43;;;1.40;;
74658;SDS011;63186;51.204;6.536;2024-02-26T03:26:06;2.43;;;1.20;;
74658;SDS011;63186;51.204;6.536;2024-02-26T03:28:31;1.65;;;1.13;;
74658;SDS011;63186;51.204;6.536;2024-02-26T03:31:00;2.15;;;1.33;;
74658;SDS011;63186;51.204;6.536;2024-02-26T03:33:27;2.45;;;1.88;;
74658;SDS011;63186;51.204;6.536;2024-02-26T03:35:52;1.13;;;0.70;;
74658;SDS011;63186;51.204;6.536;2024-02-26T03:38:17;1.73;;;1.05;;
74658;SDS011;63186;51.204;6.536;2024-02-26T03:40:43;2.37;;;1.13;;
74658;SDS011;63186;51.204;6.536;2024-02-26T03:43:08;3.27;;;1.40;;
74658;SDS011;63186;51.204;6.536;2024-02-26T03:45:33;3.70;;;1.33;;
74658;SDS011;63186;51.204;6.536;2024-02-26T03:47:58;2.42;;;1.42;;
74658;SDS011;63186;51.204;6.536;2024-02-26T03:50:24;2.07;;;1.17;;
74658;SDS011;63186;51.204;6.536;2024-02-26T03:52:49;1.42;;;1.08;;
74658;SDS011;63186;51.204;6.536;2024-02-26T03:55:14;1.87;;;1.07;;
74658;SDS011;63186;51.204;6.536;2024-02-26T03:57:40;2.55;;;1.58;;
74658;SDS011;63186;51.204;6.536;2024-02-26T04:00:05;3.50;;;1.50;;
74658;SDS011;63186;51.204;6.536;2024-02-26T04:02:31;2.28;;;1.13;;
74658;SDS011;63186;51.204;6.536;2024-02-26T04:04:57;3.30;;;1.73;;
74658;SDS011;63186;51.204;6.536;2024-02-26T04:07:22;2.47;;;1.20;;
74658;SDS011;63186;51.204;6.536;2024-02-26T04:09:47;1.85;;;1.25;;
74658;SDS011;63186;51.204;6.536;2024-02-26T04:12:13;3.57;;;1.53;;
74658;SDS011;63186;51.204;6.536;2024-02-26T04:14:38;4.03;;;2.05;;
74658;SDS011;63186;51.204;6.536;2024-02-26T04:17:04;3.90;;;1.23;;
74658;SDS011;63186;51.204;6.536;2024-02-26T04:19:29;1.88;;;1.13;;
74658;SDS011;63186;51.204;6.536;2024-02-26T04:21:54;2.37;;;1.30;;
74658;SDS011;63186;51.204;6.536;2024-02-26T04:24:20;4.00;;;1.38;;
74658;SDS011;63186;51.204;6.536;2024-02-26T04:26:45;2.83;;;1.80;;
74658;SDS011;63186;51.204;6.536;2024-02-26T04:29:10;6.43;;;1.95;;
74658;SDS011;63186;51.204;6.536;2024-02-26T04:31:37;2.78;;;1.30;;
74658;SDS011;63186;51.204;6.536;2024-02-26T04:34:03;2.55;;;1.85;;
74658;SDS011;63186;51.204;6.536;2024-02-26T04:36:28;2.97;;;1.23;;
74658;SDS011;63186;51.204;6.536;2024-02-26T04:38:53;0.80;;;0.70;;
74658;SDS011;63186;51.204;6.536;2024-02-26T04:41:22;2.10;;;1.30;;
74658;SDS011;63186;51.204;6.536;2024-02-26T04:43:47;0.55;;;0.55;;
74658;SDS011;63186;51.204;6.536;2024-02-26T04:46:12;1.73;;;1.30;;
74658;SDS011;63186;51.204;6.536;2024-02-26T04:48:38;4.80;;;1.90;;
74658;SDS011;63186;51.204;6.536;2024-02-26T04:51:03;1.63;;;1.13;;
74658;SDS011;63186;51.204;6.536;2024-02-26T04:53:29;3.60;;;1.40;;
74658;SDS011;63186;51.204;6.536;2024-02-26T04:55:54;3.20;;;1.50;;
74658;SDS011;63186;51.204;6.536;2024-02-26T04:58:19;1.70;;;1.02;;
74658;SDS011;63186;51.204;6.536;2024-02-26T05:00:45;4.22;;;1.20;;
74658;SDS011;63186;51.204;6.536;2024-02-26T05:03:10;3.08;;;1.40;;
74658;SDS011;63186;51.204;6.536;2024-02-26T05:05:38;5.60;;;1.42;;
74658;SDS011;63186;51.204;6.536;2024-02-26T05:08:04;2.35;;;1.35;;
74658;SDS011;63186;51.204;6.536;2024-02-26T05:10:30;3.50;;;1.70;;
74658;SDS011;63186;51.204;6.536;2024-02-26T05:12:55;4.53;;;1.70;;
74658;SDS011;63186;51.204;6.536;2024-02-26T05:15:20;3.73;;;1.73;;
74658;SDS011;63186;51.204;6.536;2024-02-26T05:17:46;2.85;;;1.73;;
74658;SDS011;63186;51.204;6.536;2024-02-26T05:20:11;7.28;;;1.77;;
74658;SDS011;63186;51.204;6.536;2024-02-26T05:22:36;3.72;;;1.58;;
74658;SDS011;63186;51.204;6.536;2024-02-26T05:25:02;3.60;;;1.40;;
74658;SDS011;63186;51.204;6.536;2024-02-26T05:27:28;5.70;;;2.30;;
74658;SDS011;63186;51.204;6.536;2024-02-26T05:29:53;2.77;;;1.77;;
74658;SDS011;63186;51.204;6.536;2024-02-26T05:32:19;4.68;;;2.05;;
74658;SDS011;63186;51.204;6.536;2024-02-26T05:34:44;4.85;;;2.13;;
74658;SDS011;63186;51.204;6.536;2024-02-26T05:37:10;4.30;;;2.30;;
74658;SDS011;63186;51.204;6.536;2024-02-26T05:39:35;3.33;;;1.60;;
74658;SDS011;63186;51.204;6.536;2024-02-26T05:42:00;5.82;;;2.40;;
74658;SDS011;63186;51.204;6.536;2024-02-26T05:44:26;2.95;;;1.95;;
74658;SDS011;63186;51.204;6.536;2024-02-26T05:46:52;4.70;;;2.08;;
74658;SDS011;63186;51.204;6.536;2024-02-26T05:49:17;5.17;;;1.93;;
74658;SDS011;63186;51.204;6.536;2024-02-26T05:51:42;2.93;;;1.70;;
74658;SDS011;63186;51.204;6.536;2024-02-26T05:54:08;4.13;;;2.30;;
74658;SDS011;63186;51.204;6.536;2024-02-26T05:56:34;4.18;;;2.22;;
74658;SDS011;63186;51.204;6.536;2024-02-26T05:59:00;6.65;;;1.88;;
74658;SDS011;63186;51.204;6.536;2024-02-26T06:01:25;4.32;;;2.28;;
74658;SDS011;63186;51.204;6.536;2024-02-26T06:03:51;5.68;;;2.42;;
74658;SDS011;63186;51.204;6.536;2024-02-26T06:06:16;4.35;;;2.22;;
74658;SDS011;63186;51.204;6.536;2024-02-26T06:08:42;2.47;;;1.40;;
74658;SDS011;63186;51.204;6.536;2024-02-26T06:11:08;5.15;;;2.17;;
74658;SDS011;63186;51.204;6.536;2024-02-26T06:13:33;3.97;;;2.13;;
74658;SDS011;63186;51.204;6.536;2024-02-26T06:15:59;5.43;;;2.10;;
74658;SDS011;63186;51.204;6.536;2024-02-26T06:18:24;2.70;;;1.73;;
74658;SDS011;63186;51.204;6.536;2024-02-26T06:20:50;3.63;;;1.87;;
74658;SDS011;63186;51.204;6.536;2024-02-26T06:23:15;3.20;;;1.77;;
74658;SDS011;63186;51.204;6.536;2024-02-26T06:25:41;4.40;;;2.20;;
74658;SDS011;63186;51.204;6.536;2024-02-26T06:28:07;5.85;;;3.75;;
74658;SDS011;63186;51.204;6.536;2024-02-26T06:30:32;4.78;;;2.40;;
74658;SDS011;63186;51.204;6.536;2024-02-26T06:32:58;5.43;;;2.25;;
74658;SDS011;63186;51.204;6.536;2024-02-26T06:35:23;5.05;;;2.08;;
74658;SDS011;63186;51.204;6.536;2024-02-26T06:37:48;4.63;;;1.95;;
74658;SDS011;63186;51.204;6.536;2024-02-26T06:40:17;7.38;;;2.92;;
74658;SDS011;63186;51.204;6.536;2024-02-26T06:42:43;4.78;;;2.33;;
74658;SDS011;63186;51.204;6.536;2024-02-26T06:45:09;4.95;;;2.55;;
74658;SDS011;63186;51.204;6.536;2024-02-26T06:47:34;6.93;;;2.58;;
74658;SDS011;63186;51.204;6.536;2024-02-26T06:49:59;5.63;;;2.85;;
74658;SDS011;63186;51.204;6.536;2024-02-26T06:52:25;8.05;;;2.55;;
74658;SDS011;63186;51.204;6.536;2024-02-26T06:54:51;5.95;;;2.53;;
74658;SDS011;63186;51.204;6.536;2024-02-26T06:57:18;6.22;;;2.60;;
74658;SDS011;63186;51.204;6.536;2024-02-26T06:59:46;5.68;;;3.25;;
74658;SDS011;63186;51.204;6.536;2024-02-26T07:02:12;5.53;;;2.63;;
74658;SDS011;63186;51.204;6.536;2024-02-26T07:04:41;4.55;;;2.47;;
74658;SDS011;63186;51.204;6.536;2024-02-26T07:07:07;4.85;;;2.13;;
74658;SDS011;63186;51.204;6.536;2024-02-26T07:09:32;6.72;;;2.90;;
74658;SDS011;63186;51.204;6.536;2024-02-26T07:11:58;4.80;;;2.17;;
74658;SDS011;63186;51.204;6.536;2024-02-26T07:14:23;4.93;;;2.63;;
74658;SDS011;63186;51.204;6.536;2024-02-26T07:16:49;6.72;;;3.70;;
74658;SDS011;63186;51.204;6.536;2024-02-26T07:19:15;6.15;;;2.92;;
74658;SDS011;63186;51.204;6.536;2024-02-26T07:21:40;4.15;;;1.98;;
74658;SDS011;63186;51.204;6.536;2024-02-26T07:24:05;5.03;;;2.83;;
74658;SDS011;63186;51.204;6.536;2024-02-26T07:26:31;8.80;;;2.65;;
74658;SDS011;63186;51.204;6.536;2024-02-26T07:28:56;7.15;;;3.63;;
74658;SDS011;63186;51.204;6.536;2024-02-26T07:31:22;6.32;;;3.17;;
74658;SDS011;63186;51.204;6.536;2024-02-26T07:33:47;5.50;;;2.63;;
74658;SDS011;63186;51.204;6.536;2024-02-26T07:36:13;3.70;;;1.83;;
74658;SDS011;63186;51.204;6.536;2024-02-26T07:38:38;5.90;;;2.67;;
74658;SDS011;63186;51.204;6.536;2024-02-26T07:41:04;5.93;;;2.75;;
74658;SDS011;63186;51.204;6.536;2024-02-26T07:43:29;5.28;;;2.65;;
74658;SDS011;63186;51.204;6.536;2024-02-26T07:45:54;6.53;;;2.38;;
74658;SDS011;63186;51.204;6.536;2024-02-26T07:48:20;6.07;;;3.05;;
74658;SDS011;63186;51.204;6.536;2024-02-26T07:50:45;5.57;;;3.22;;
74658;SDS011;63186;51.204;6.536;2024-02-26T07:53:11;6.17;;;2.40;;
74658;SDS011;63186;51.204;6.536;2024-02-26T07:55:36;3.07;;;1.90;;
74658;SDS011;63186;51.204;6.536;2024-02-26T07:58:01;4.70;;;2.80;;
74658;SDS011;63186;51.204;6.536;2024-02-26T08:00:27;4.00;;;2.45;;
74658;SDS011;63186;51.204;6.536;2024-02-26T08:02:53;3.97;;;1.83;;
74658;SDS011;63186;51.204;6.536;2024-02-26T08:05:18;4.88;;;2.28;;
74658;SDS011;63186;51.204;6.536;2024-02-26T08:07:44;2.92;;;1.67;;
74658;SDS011;63186;51.204;6.536;2024-02-26T08:10:09;5.38;;;2.60;;
74658;SDS011;63186;51.204;6.536;2024-02-26T08:12:36;4.70;;;2.20;;
74658;SDS011;63186;51.204;6.536;2024-02-26T08:15:01;4.45;;;2.08;;
74658;SDS011;63186;51.204;6.536;2024-02-26T08:17:27;5.38;;;2.40;;
74658;SDS011;63186;51.204;6.536;2024-02-26T08:19:53;6.40;;;2.83;;
74658;SDS011;63186;51.204;6.536;2024-02-26T08:22:18;5.00;;;2.75;;
74658;SDS011;63186;51.204;6.536;2024-02-26T08:24:44;4.93;;;2.15;;
74658;SDS011;63186;51.204;6.536;2024-02-26T08:27:10;3.87;;;2.20;;
74658;SDS011;63186;51.204;6.536;2024-02-26T08:29:35;5.65;;;2.35;;
74658;SDS011;63186;51.204;6.536;2024-02-26T08:32:01;6.13;;;2.17;;
74658;SDS011;63186;51.204;6.536;2024-02-26T08:34:27;3.33;;;1.85;;
74658;SDS011;63186;51.204;6.536;2024-02-26T08:36:52;5.60;;;2.87;;
74658;SDS011;63186;51.204;6.536;2024-02-26T08:39:18;4.90;;;1.97;;
74658;SDS011;63186;51.204;6.536;2024-02-26T08:41:43;4.70;;;2.17;;
74658;SDS011;63186;51.204;6.536;2024-02-26T08:44:09;3.97;;;2.22;;
74658;SDS011;63186;51.204;6.536;2024-02-26T08:46:34;3.75;;;2.10;;
74658;SDS011;63186;51.204;6.536;2024-02-26T08:49:00;5.97;;;2.57;;
74658;SDS011;63186;51.204;6.536;2024-02-26T08:51:25;6.43;;;2.40;;
74658;SDS011;63186;51.204;6.536;2024-02-26T08:53:50;5.55;;;2.58;;
74658;SDS011;63186;51.204;6.536;2024-02-26T08:56:16;5.10;;;2.45;;
74658;SDS011;63186;51.204;6.536;2024-02-26T08:58:42;4.85;;;2.50;;
74658;SDS011;63186;51.204;6.536;2024-02-26T09:01:08;4.63;;;2.33;;
74658;SDS011;63186;51.204;6.536;2024-02-26T09:03:33;5.18;;;2.55;;
74658;SDS011;63186;51.204;6.536;2024-02-26T09:05:59;6.30;;;2.07;;
74658;SDS011;63186;51.204;6.536;2024-02-26T09:08:24;3.80;;;1.75;;
74658;SDS011;63186;51.204;6.536;2024-02-26T09:10:49;4.43;;;2.17;;
74658;SDS011;63186;51.204;6.536;2024-02-26T09:13:15;4.90;;;1.83;;
74658;SDS011;63186;51.204;6.536;2024-02-26T09:15:40;4.07;;;2.40;;
74658;SDS011;63186;51.204;6.536;2024-02-26T09:18:06;3.63;;;2.13;;
74658;SDS011;63186;51.204;6.536;2024-02-26T09:20:31;4.55;;;1.92;;
74658;SDS011;63186;51.204;6.536;2024-02-26T09:22:56;4.03;;;1.97;;
74658;SDS011;63186;51.204;6.536;2024-02-26T09:25:22;4.45;;;2.20;;
74658;SDS011;63186;51.204;6.536;2024-02-26T09:27:47;4.55;;;2.22;;
74658;SDS011;63186;51.204;6.536;2024-02-26T09:30:13;3.15;;;1.63;;
74658;SDS011;63186;51.204;6.536;2024-02-26T09:32:39;5.28;;;1.85;;
74658;SDS011;63186;51.204;6.536;2024-02-26T09:35:05;5.30;;;1.95;;
74658;SDS011;63186;51.204;6.536;2024-02-26T09:37:31;4.20;;;2.25;;
74658;SDS011;63186;51.204;6.536;2024-02-26T09:39:56;2.65;;;1.63;;
74658;SDS011;63186;51.204;6.536;2024-02-26T09:42:22;3.95;;;1.63;;
74658;SDS011;63186;51.204;6.536;2024-02-26T09:44:51;3.10;;;1.67;;
74658;SDS011;63186;51.204;6.536;2024-02-26T09:47:19;3.78;;;1.52;;
74658;SDS011;63186;51.204;6.536;2024-02-26T09:49:46;3.55;;;1.77;;
74658;SDS011;63186;51.204;6.536;2024-02-26T09:52:12;4.53;;;2.25;;
74658;SDS011;63186;51.204;6.536;2024-02-26T09:54:40;4.82;;;2.60;;
74658;SDS011;63186;51.204;6.536;2024-02-26T09:57:07;3.83;;;2.38;;
74658;SDS011;63186;51.204;6.536;2024-02-26T09:59:40;2.47;;;1.65;;
74658;SDS011;63186;51.204;6.536;2024-02-26T10:02:11;3.95;;;1.95;;
74658;SDS011;63186;51.204;6.536;2024-02-26T10:04:39;4.80;;;1.67;;
74658;SDS011;63186;51.204;6.536;2024-02-26T10:07:06;4.90;;;2.40;;
74658;SDS011;63186;51.204;6.536;2024-02-26T10:09:35;3.33;;;1.50;;
74658;SDS011;63186;51.204;6.536;2024-02-26T10:12:00;3.53;;;1.98;;
74658;SDS011;63186;51.204;6.536;2024-02-26T10:14:26;3.05;;;1.65;;
74658;SDS011;63186;51.204;6.536;2024-02-26T10:16:51;4.50;;;2.07;;
74658;SDS011;63186;51.204;6.536;2024-02-26T10:19:27;5.63;;;2.33;;
74658;SDS011;63186;51.204;6.536;2024-02-26T10:22:02;4.03;;;2.25;;
74658;SDS011;63186;51.204;6.536;2024-02-26T10:24:29;2.78;;;1.83;;
74658;SDS011;63186;51.204;6.536;2024-02-26T10:26:55;5.00;;;2.22;;
74658;SDS011;63186;51.204;6.536;2024-02-26T10:29:22;5.25;;;2.05;;
74658;SDS011;63186;51.204;6.536;2024-02-26T10:31:50;3.80;;;1.95;;
74658;SDS011;63186;51.204;6.536;2024-02-26T10:34:16;6.03;;;2.90;;
74658;SDS011;63186;51.204;6.536;2024-02-26T10:36:41;6.67;;;3.67;;
74658;SDS011;63186;51.204;6.536;2024-02-26T10:39:07;4.43;;;2.25;;
74658;SDS011;63186;51.204;6.536;2024-02-26T10:41:33;6.28;;;2.78;;
74658;SDS011;63186;51.204;6.536;2024-02-26T10:43:59;5.90;;;2.72;;
74658;SDS011;63186;51.204;6.536;2024-02-26T10:46:25;8.07;;;2.63;;
74658;SDS011;63186;51.204;6.536;2024-02-26T10:48:51;5.07;;;2.60;;
74658;SDS011;63186;51.204;6.536;2024-02-26T10:51:18;4.45;;;2.20;;
74658;SDS011;63186;51.204;6.536;2024-02-26T10:53:48;4.53;;;2.45;;
74658;SDS011;63186;51.204;6.536;2024-02-26T10:56:21;4.82;;;2.50;;
74658;SDS011;63186;51.204;6.536;2024-02-26T10:58:50;5.93;;;2.15;;
74658;SDS011;63186;51.204;6.536;2024-02-26T11:01:16;7.47;;;3.08;;
74658;SDS011;63186;51.204;6.536;2024-02-26T11:03:44;6.35;;;2.53;;
74658;SDS011;63186;51.204;6.536;2024-02-26T11:06:09;6.32;;;2.50;;
74658;SDS011;63186;51.204;6.536;2024-02-26T11:08:36;9.20;;;2.42;;
74658;SDS011;63186;51.204;6.536;2024-02-26T11:11:01;6.80;;;3.08;;
74658;SDS011;63186;51.204;6.536;2024-02-26T11:13:28;7.00;;;2.75;;
74658;SDS011;63186;51.204;6.536;2024-02-26T11:15:56;5.60;;;2.60;;
74658;SDS011;63186;51.204;6.536;2024-02-26T11:18:22;3.38;;;2.05;;
74658;SDS011;63186;51.204;6.536;2024-02-26T11:20:48;5.45;;;2.35;;
74658;SDS011;63186;51.204;6.536;2024-02-26T11:23:15;5.93;;;2.70;;
74658;SDS011;63186;51.204;6.536;2024-02-26T11:25:40;4.80;;;2.15;;
74658;SDS011;63186;51.204;6.536;2024-02-26T11:28:08;7.30;;;3.08;;
74658;SDS011;63186;51.204;6.536;2024-02-26T11:30:39;7.45;;;2.67;;
74658;SDS011;63186;51.204;6.536;2024-02-26T11:33:09;6.38;;;2.30;;
74658;SDS011;63186;51.204;6.536;2024-02-26T11:35:37;5.72;;;2.67;;
74658;SDS011;63186;51.204;6.536;2024-02-26T11:38:03;4.82;;;1.85;;
74658;SDS011;63186;51.204;6.536;2024-02-26T11:40:29;5.93;;;2.78;;
74658;SDS011;63186;51.204;6.536;2024-02-26T11:42:56;8.43;;;3.63;;
74658;SDS011;63186;51.204;6.536;2024-02-26T11:45:47;6.10;;;3.00;;
74658;SDS011;63186;51.204;6.536;2024-02-26T11:48:13;5.85;;;2.95;;
74658;SDS011;63186;51.204;6.536;2024-02-26T11:58:44;7.38;;;3.53;;
74658;SDS011;63186;51.204;6.536;2024-02-26T12:01:35;5.90;;;3.33;;
74658;SDS011;63186;51.204;6.536;2024-02-26T12:04:07;7.45;;;3.53;;
74658;SDS011;63186;51.204;6.536;2024-02-26T12:06:42;7.63;;;3.25;;
74658;SDS011;63186;51.204;6.536;2024-02-26T12:09:10;6.32;;;3.03;;
74658;SDS011;63186;51.204;6.536;2024-02-26T12:11:39;6.07;;;2.55;;
74658;SDS011;63186;51.204;6.536;2024-02-26T12:14:05;5.60;;;2.72;;
74658;SDS011;63186;51.204;6.536;2024-02-26T12:16:37;8.57;;;3.67;;
74658;SDS011;63186;51.204;6.536;2024-02-26T12:19:08;6.75;;;3.40;;
74658;SDS011;63186;51.204;6.536;2024-02-26T12:21:37;5.03;;;2.75;;
74658;SDS011;63186;51.204;6.536;2024-02-26T12:24:13;6.20;;;3.00;;
74658;SDS011;63186;51.204;6.536;2024-02-26T12:26:41;8.43;;;3.00;;
74658;SDS011;63186;51.204;6.536;2024-02-26T12:29:07;8.15;;;3.85;;
74658;SDS011;63186;51.204;6.536;2024-02-26T12:31:32;9.07;;;4.38;;
74658;SDS011;63186;51.204;6.536;2024-02-26T12:33:59;8.10;;;4.32;;
74658;SDS011;63186;51.204;6.536;2024-02-26T12:36:26;8.52;;;4.75;;
74658;SDS011;63186;51.204;6.536;2024-02-26T12:38:51;10.27;;;4.85;;
74658;SDS011;63186;51.204;6.536;2024-02-26T12:41:17;10.32;;;4.85;;
74658;SDS011;63186;51.204;6.536;2024-02-26T12:43:42;5.65;;;2.85;;
74658;SDS011;63186;51.204;6.536;2024-02-26T12:46:08;7.28;;;3.33;;
74658;SDS011;63186;51.204;6.536;2024-02-26T12:48:33;8.90;;;4.13;;
74658;SDS011;63186;51.204;6.536;2024-02-26T12:50:59;6.93;;;3.40;;
74658;SDS011;63186;51.204;6.536;2024-02-26T12:53:25;6.57;;;3.28;;
74658;SDS011;63186;51.204;6.536;2024-02-26T12:55:52;8.35;;;3.95;;
74658;SDS011;63186;51.204;6.536;2024-02-26T12:58:19;8.07;;;3.30;;
74658;SDS011;63186;51.204;6.536;2024-02-26T13:00:45;7.10;;;2.92;;
74658;SDS011;63186;51.204;6.536;2024-02-26T13:03:12;9.15;;;3.88;;
74658;SDS011;63186;51.204;6.536;2024-02-26T13:05:38;7.65;;;3.83;;
74658;SDS011;63186;51.204;6.536;2024-02-26T13:08:05;8.35;;;3.80;;
74658;SDS011;63186;51.204;6.536;2024-02-26T13:10:31;7.93;;;4.43;;
74658;SDS011;63186;51.204;6.536;2024-02-26T13:12:56;8.75;;;4.10;;
74658;SDS011;63186;51.204;6.536;2024-02-26T13:15:22;9.43;;;4.32;;
74658;SDS011;63186;51.204;6.536;2024-02-26T13:17:48;8.07;;;3.85;;
74658;SDS011;63186;51.204;6.536;2024-02-26T13:20:27;8.45;;;3.70;;
74658;SDS011;63186;51.204;6.536;2024-02-26T13:22:59;8.40;;;4.65;;
74658;SDS011;63186;51.204;6.536;2024-02-26T13:25:26;8.10;;;4.20;;
74658;SDS011;63186;51.204;6.536;2024-02-26T13:27:51;10.07;;;5.63;;
74658;SDS011;63186;51.204;6.536;2024-02-26T13:30:16;11.20;;;5.07;;
74658;SDS011;63186;51.204;6.536;2024-02-26T13:32:44;9.07;;;4.63;;
74658;SDS011;63186;51.204;6.536;2024-02-26T13:35:12;16.15;;;7.32;;
74658;SDS011;63186;51.204;6.536;2024-02-26T13:37:38;11.18;;;5.72;;
74658;SDS011;63186;51.204;6.536;2024-02-26T13:40:05;12.63;;;5.65;;
74658;SDS011;63186;51.204;6.536;2024-02-26T13:42:37;9.15;;;5.43;;
74658;SDS011;63186;51.204;6.536;2024-02-26T13:45:03;8.38;;;4.07;;
74658;SDS011;63186;51.204;6.536;2024-02-26T13:47:31;15.15;;;6.05;;
74658;SDS011;63186;51.204;6.536;2024-02-26T13:50:00;11.70;;;6.38;;
74658;SDS011;63186;51.204;6.536;2024-02-26T13:52:26;12.13;;;5.72;;
74658;SDS011;63186;51.204;6.536;2024-02-26T13:54:51;13.48;;;5.85;;
74658;SDS011;63186;51.204;6.536;2024-02-26T13:57:17;8.95;;;5.30;;
74658;SDS011;63186;51.204;6.536;2024-02-26T13:59:44;10.43;;;5.43;;
74658;SDS011;63186;51.204;6.536;2024-02-26T14:02:09;11.30;;;4.72;;
74658;SDS011;63186;51.204;6.536;2024-02-26T14:04:35;10.63;;;5.35;;
74658;SDS011;63186;51.204;6.536;2024-02-26T14:07:01;11.10;;;5.60;;
74658;SDS011;63186;51.204;6.536;2024-02-26T14:09:27;11.60;;;5.43;;
74658;SDS011;63186;51.204;6.536;2024-02-26T14:11:52;9.63;;;5.63;;
74658;SDS011;63186;51.204;6.536;2024-02-26T14:14:17;9.80;;;4.40;;
74658;SDS011;63186;51.204;6.536;2024-02-26T14:16:43;10.33;;;5.37;;
74658;SDS011;63186;51.204;6.536;2024-02-26T14:19:08;11.20;;;5.63;;
74658;SDS011;63186;51.204;6.536;2024-02-26T14:21:33;9.87;;;5.07;;
74658;SDS011;63186;51.204;6.536;2024-02-26T14:24:00;9.43;;;4.70;;
74658;SDS011;63186;51.204;6.536;2024-02-26T14:26:25;10.60;;;4.53;;
74658;SDS011;63186;51.204;6.536;2024-02-26T14:28:50;14.00;;;5.93;;
74658;SDS011;63186;51.204;6.536;2024-02-26T14:31:18;11.07;;;5.20;;
74658;SDS011;63186;51.204;6.536;2024-02-26T14:33:44;11.52;;;4.07;;
74658;SDS011;63186;51.204;6.536;2024-02-26T14:36:09;8.93;;;4.22;;
74658;SDS011;63186;51.204;6.536;2024-02-26T14:38:36;12.32;;;4.55;;
74658;SDS011;63186;51.204;6.536;2024-02-26T14:41:01;9.60;;;4.25;;
74658;SDS011;63186;51.204;6.536;2024-02-26T14:43:27;7.50;;;3.97;;
74658;SDS011;63186;51.204;6.536;2024-02-26T14:45:53;10.32;;;5.55;;
74658;SDS011;63186;51.204;6.536;2024-02-26T14:48:18;10.93;;;5.35;;
74658;SDS011;63186;51.204;6.536;2024-02-26T14:50:43;7.47;;;4.30;;